createdAt,value
2022-12-28T00:00:55.489Z,9.40
2022-12-28T00:02:57.227Z,9.30
2022-12-28T00:04:58.909Z,9.40
2022-12-28T00:07:00.556Z,9.30
2022-12-28T00:09:02.781Z,9.40
2022-12-28T00:11:12.338Z,9.40
2022-12-28T00:13:20.552Z,9.40
2022-12-28T00:15:22.184Z,9.40
2022-12-28T00:17:23.839Z,9.50
2022-12-28T00:19:25.456Z,9.50
2022-12-28T00:21:27.477Z,9.50
2022-12-28T00:23:29.664Z,9.50
2022-12-28T00:25:31.409Z,9.50
2022-12-28T00:27:33.169Z,9.60
2022-12-28T00:29:34.809Z,9.60
2022-12-28T00:31:36.643Z,9.60
2022-12-28T00:33:38.633Z,9.60
2022-12-28T00:35:40.258Z,9.60
2022-12-28T00:37:41.871Z,9.60
2022-12-28T00:39:43.523Z,9.60
2022-12-28T00:41:49.745Z,9.60
2022-12-28T00:43:51.485Z,9.60
2022-12-28T00:45:53.294Z,9.70
2022-12-28T00:47:54.984Z,9.70
2022-12-28T00:49:56.649Z,9.70
2022-12-28T00:51:58.638Z,9.70
2022-12-28T00:54:00.269Z,9.70
2022-12-28T00:56:05.997Z,9.70
2022-12-28T00:58:07.802Z,9.70
2022-12-28T01:00:09.814Z,9.70
2022-12-28T01:02:11.553Z,9.80
2022-12-28T01:04:13.420Z,9.70
2022-12-28T01:06:17.477Z,9.70
2022-12-28T01:08:19.148Z,9.80
2022-12-28T01:10:20.777Z,9.80
2022-12-28T01:12:22.400Z,9.80
2022-12-28T01:14:24.308Z,9.80
2022-12-28T01:16:30.024Z,9.80
2022-12-28T01:18:31.731Z,9.80
2022-12-28T01:20:33.418Z,9.80
2022-12-28T01:22:35.087Z,9.80
2022-12-28T01:24:36.779Z,9.80
2022-12-28T01:26:38.399Z,9.80
2022-12-28T01:28:40.029Z,9.90
2022-12-28T01:30:41.682Z,9.90
2022-12-28T01:32:43.333Z,9.90
2022-12-28T01:34:44.974Z,9.90
2022-12-28T01:36:47.249Z,9.80
2022-12-28T01:38:52.192Z,9.80
2022-12-28T01:40:53.849Z,9.80
2022-12-28T01:42:55.550Z,9.80
2022-12-28T01:44:57.212Z,9.90
2022-12-28T01:47:04.397Z,9.90
2022-12-28T01:49:14.165Z,9.80
2022-12-28T01:51:17.019Z,9.80
2022-12-28T01:53:19.931Z,9.90
2022-12-28T01:55:23.393Z,9.80
2022-12-28T01:57:29.259Z,9.90
2022-12-28T01:59:32.468Z,9.80
2022-12-28T02:01:34.652Z,9.80
2022-12-28T02:03:36.634Z,9.90
2022-12-28T02:05:39.563Z,9.80
2022-12-28T02:07:57.587Z,9.90
2022-12-28T02:10:44.577Z,9.90
2022-12-28T02:12:22.079Z,9.90
2022-12-28T02:14:23.757Z,9.90
2022-12-28T02:16:26.163Z,9.90
2022-12-28T02:18:27.940Z,9.90
2022-12-28T02:20:49.842Z,9.90
2022-12-28T02:23:10.376Z,9.90
2022-12-28T02:25:27.265Z,10.00
2022-12-28T02:27:35.098Z,10.00
2022-12-28T02:29:48.080Z,10.00
2022-12-28T02:31:53.057Z,10.00
2022-12-28T02:33:58.549Z,10.10
2022-12-28T02:36:18.256Z,10.00
2022-12-28T02:38:30.734Z,10.00
2022-12-28T02:40:41.552Z,10.10
2022-12-28T02:42:44.360Z,10.00
2022-12-28T02:45:04.701Z,10.00
2022-12-28T02:47:31.411Z,10.00
2022-12-28T02:49:51.986Z,10.00
2022-12-28T02:52:06.521Z,10.00
2022-12-28T02:54:39.287Z,10.00
2022-12-28T02:56:44.748Z,10.00
2022-12-28T02:58:52.469Z,10.00
2022-12-28T03:00:54.065Z,10.00
2022-12-28T03:03:15.628Z,10.00
2022-12-28T03:05:54.644Z,10.00
2022-12-28T03:08:20.544Z,10.00
2022-12-28T03:10:32.798Z,10.10
2022-12-28T03:12:56.911Z,10.00
2022-12-28T03:15:07.787Z,10.00
2022-12-28T03:17:28.719Z,10.00
2022-12-28T03:19:50.982Z,10.00
2022-12-28T03:22:13.028Z,10.00
2022-12-28T03:24:36.077Z,10.00
2022-12-28T03:26:59.633Z,10.00
2022-12-28T03:29:25.782Z,10.00
2022-12-28T03:31:28.241Z,10.00
2022-12-28T03:33:42.668Z,10.00
2022-12-28T03:35:48.911Z,10.00
2022-12-28T03:37:53.900Z,10.00
2022-12-28T03:40:00.492Z,10.00
2022-12-28T03:42:33.018Z,10.10
2022-12-28T03:44:35.583Z,10.10
2022-12-28T03:46:43.797Z,10.10
2022-12-28T03:48:46.294Z,10.10
2022-12-28T03:50:51.267Z,10.10
2022-12-28T03:52:53.194Z,10.20
2022-12-28T03:54:54.845Z,10.20
2022-12-28T03:56:57.363Z,10.10
2022-12-28T03:59:03.757Z,10.10
2022-12-28T04:01:14.999Z,10.20
2022-12-28T04:03:17.408Z,10.20
2022-12-28T04:05:21.274Z,10.10
2022-12-28T04:07:23.214Z,10.10
2022-12-28T04:09:24.971Z,10.10
2022-12-28T04:11:26.951Z,10.10
2022-12-28T04:13:32.721Z,10.10
2022-12-28T04:16:01.592Z,10.10
2022-12-28T04:18:04.589Z,10.10
2022-12-28T04:20:06.677Z,10.10
2022-12-28T04:22:08.553Z,10.20
2022-12-28T04:24:11.213Z,10.20
2022-12-28T04:26:14.847Z,10.10
2022-12-28T04:28:17.974Z,10.20
2022-12-28T04:30:44.344Z,10.20
2022-12-28T04:32:46.059Z,10.20
2022-12-28T04:34:49.055Z,10.20
2022-12-28T04:36:52.931Z,10.20
2022-12-28T04:38:57.919Z,10.20
2022-12-28T04:40:59.577Z,10.20
2022-12-28T04:43:01.272Z,10.30
2022-12-28T04:45:03.008Z,10.30
2022-12-28T04:47:04.622Z,10.30
2022-12-28T04:49:06.268Z,10.30
2022-12-28T04:51:09.342Z,10.30
2022-12-28T04:53:10.942Z,10.30
2022-12-28T04:55:32.832Z,10.30
2022-12-28T04:57:34.604Z,10.30
2022-12-28T04:59:36.249Z,10.30
2022-12-28T05:01:37.985Z,10.30
2022-12-28T05:03:42.168Z,10.30
2022-12-28T05:05:43.777Z,10.30
2022-12-28T05:07:45.372Z,10.30
2022-12-28T05:09:47.059Z,10.30
2022-12-28T05:11:48.755Z,10.30
2022-12-28T05:13:50.744Z,10.30
2022-12-28T05:15:52.443Z,10.30
2022-12-28T05:17:54.604Z,10.40
2022-12-28T05:19:56.218Z,10.40
2022-12-28T05:21:57.822Z,10.40
2022-12-28T05:23:59.898Z,10.30
2022-12-28T05:26:01.556Z,10.30
2022-12-28T05:28:03.229Z,10.30
2022-12-28T05:30:05.133Z,10.30
2022-12-28T05:32:06.801Z,10.40
2022-12-28T05:34:08.538Z,10.40
2022-12-28T05:36:11.778Z,10.40
2022-12-28T05:38:13.399Z,10.40
2022-12-28T05:40:15.108Z,10.40
2022-12-28T05:42:16.743Z,10.40
2022-12-28T05:44:18.396Z,10.40
2022-12-28T05:46:21.472Z,10.40
2022-12-28T05:48:23.148Z,10.40
2022-12-28T05:50:24.836Z,10.40
2022-12-28T05:52:26.569Z,10.40
2022-12-28T05:54:28.265Z,10.40
2022-12-28T05:56:30.583Z,10.40
2022-12-28T05:58:32.578Z,10.40
2022-12-28T06:00:34.253Z,10.50
2022-12-28T06:02:36.132Z,10.50
2022-12-28T06:04:37.898Z,10.50
2022-12-28T06:06:39.541Z,10.50
2022-12-28T06:08:41.529Z,10.50
2022-12-28T06:10:43.147Z,10.50
2022-12-28T06:12:44.757Z,10.50
2022-12-28T06:14:46.382Z,10.50
2022-12-28T06:16:48.025Z,10.50
2022-12-28T06:18:51.253Z,10.60
2022-12-28T06:20:57.009Z,10.60
2022-12-28T06:22:58.925Z,10.60
2022-12-28T06:25:00.521Z,10.60
2022-12-28T06:27:02.171Z,10.60
2022-12-28T06:29:04.171Z,10.60
2022-12-28T06:31:07.668Z,10.60
2022-12-28T06:33:09.414Z,10.60
2022-12-28T06:35:11.072Z,10.50
2022-12-28T06:37:12.733Z,10.50
2022-12-28T06:39:14.647Z,10.60
2022-12-28T06:41:17.028Z,10.60
2022-12-28T06:43:18.795Z,10.50
2022-12-28T06:45:20.471Z,10.60
2022-12-28T06:47:22.134Z,10.60
2022-12-28T06:49:23.811Z,10.60
2022-12-28T06:51:26.993Z,10.60
2022-12-28T06:53:29.935Z,10.60
2022-12-28T06:55:31.584Z,10.60
2022-12-28T06:57:33.245Z,10.60
2022-12-28T06:59:34.906Z,10.60
2022-12-28T07:01:38.597Z,10.60
2022-12-28T07:03:40.686Z,10.60
2022-12-28T07:05:42.435Z,10.60
2022-12-28T07:07:45.419Z,10.60
2022-12-28T07:09:47.052Z,10.70
2022-12-28T07:11:49.960Z,10.70
2022-12-28T07:13:51.613Z,10.70
2022-12-28T07:15:53.232Z,10.70
2022-12-28T07:17:54.882Z,10.70
2022-12-28T07:19:56.532Z,10.70
2022-12-28T07:21:58.153Z,10.70
2022-12-28T07:23:59.963Z,10.80
2022-12-28T07:26:09.725Z,10.80
2022-12-28T07:28:11.381Z,10.80
2022-12-28T07:30:13.121Z,10.80
2022-12-28T07:32:14.737Z,10.80
2022-12-28T07:34:16.559Z,10.90
2022-12-28T07:36:19.423Z,10.80
2022-12-28T07:38:21.697Z,10.80
2022-12-28T07:40:23.485Z,10.80
2022-12-28T07:42:25.187Z,10.80
2022-12-28T07:44:29.875Z,10.90
2022-12-28T07:46:33.978Z,10.80
2022-12-28T07:48:36.274Z,10.80
2022-12-28T07:50:38.329Z,10.80
2022-12-28T07:52:40.140Z,10.80
2022-12-28T07:54:41.806Z,10.80
2022-12-28T08:00:48.478Z,10.80
2022-12-28T08:02:50.124Z,10.80
2022-12-28T08:04:52.387Z,10.90
2022-12-28T08:06:54.297Z,10.80
2022-12-28T08:08:58.076Z,10.80
2022-12-28T08:11:02.175Z,10.90
2022-12-28T08:13:03.819Z,10.90
2022-12-28T08:15:05.733Z,10.90
2022-12-28T08:17:07.381Z,10.90
2022-12-28T08:19:09.543Z,10.90
2022-12-28T08:21:13.613Z,10.90
2022-12-28T08:23:15.307Z,10.90
2022-12-28T08:25:17.215Z,11.00
2022-12-28T08:27:18.890Z,11.00
2022-12-28T08:29:21.638Z,11.00
2022-12-28T08:31:27.346Z,11.00
2022-12-28T08:33:29.021Z,11.00
2022-12-28T08:35:30.644Z,11.00
2022-12-28T08:37:32.327Z,11.00
2022-12-28T08:39:33.981Z,11.10
2022-12-28T08:41:35.648Z,11.00
2022-12-28T08:43:37.304Z,11.10
2022-12-28T08:45:39.000Z,11.10
2022-12-28T08:47:40.677Z,11.10
2022-12-28T08:49:44.398Z,11.10
2022-12-28T08:51:46.060Z,11.10
2022-12-28T08:53:47.816Z,11.10
2022-12-28T08:55:49.867Z,11.20
2022-12-28T08:57:51.557Z,11.20
2022-12-28T08:59:53.173Z,11.20
2022-12-28T09:01:54.938Z,11.20
2022-12-28T09:03:58.102Z,11.20
2022-12-28T09:06:02.017Z,11.30
2022-12-28T09:08:03.865Z,11.30
2022-12-28T09:10:05.882Z,11.30
2022-12-28T09:12:07.710Z,11.30
2022-12-28T09:14:10.494Z,11.40
2022-12-28T09:16:13.438Z,11.30
2022-12-28T09:18:15.174Z,11.40
2022-12-28T09:20:16.849Z,11.40
2022-12-28T09:22:18.548Z,11.40
2022-12-28T09:24:20.305Z,11.40
2022-12-28T09:26:23.219Z,11.40
2022-12-28T09:28:24.867Z,11.50
2022-12-28T09:30:26.542Z,11.50
2022-12-28T09:32:28.149Z,11.50
2022-12-28T09:34:38.216Z,11.50
2022-12-28T09:36:41.454Z,11.50
2022-12-28T09:38:43.535Z,11.60
2022-12-28T09:40:45.286Z,11.60
2022-12-28T09:42:47.040Z,11.60
2022-12-28T09:45:04.831Z,11.60
2022-12-28T09:47:24.788Z,11.60
2022-12-28T09:49:33.356Z,11.70
2022-12-28T09:51:37.857Z,11.70
2022-12-28T09:53:39.488Z,11.70
2022-12-28T09:55:43.451Z,11.70
2022-12-28T09:57:47.702Z,11.80
2022-12-28T09:59:49.689Z,11.70
2022-12-28T10:02:00.780Z,11.80
2022-12-28T10:04:02.661Z,11.80
2022-12-28T10:06:09.743Z,11.80
2022-12-28T10:08:13.507Z,11.80
2022-12-28T10:10:18.812Z,11.80
2022-12-28T10:12:21.828Z,11.80
2022-12-28T10:14:28.320Z,11.80
2022-12-28T10:16:32.806Z,11.80
2022-12-28T10:18:39.631Z,11.90
2022-12-28T10:20:44.070Z,11.90
2022-12-28T10:22:50.318Z,11.90
2022-12-28T10:24:52.266Z,11.90
2022-12-28T10:26:54.686Z,12.00
2022-12-28T10:29:00.263Z,12.00
2022-12-28T10:31:04.049Z,12.00
2022-12-28T10:33:13.844Z,12.00
2022-12-28T10:35:23.313Z,12.10
2022-12-28T10:37:26.631Z,12.10
2022-12-28T10:39:29.527Z,12.10
2022-12-28T10:41:33.715Z,12.10
2022-12-28T10:43:36.800Z,12.20
2022-12-28T10:45:46.020Z,12.20
2022-12-28T10:47:49.236Z,12.30
2022-12-28T10:50:10.484Z,12.30
2022-12-28T10:52:16.022Z,12.20
2022-12-28T10:54:28.097Z,12.30
2022-12-28T10:56:33.673Z,12.30
2022-12-28T10:58:35.404Z,12.30
2022-12-28T11:00:37.131Z,12.30
2022-12-28T11:02:39.163Z,12.40
2022-12-28T11:04:52.325Z,12.40
2022-12-28T11:06:55.509Z,12.50
2022-12-28T11:09:02.100Z,12.40
2022-12-28T11:11:03.992Z,12.40
2022-12-28T11:13:09.388Z,12.50
2022-12-28T11:15:18.263Z,12.50
2022-12-28T11:17:23.936Z,12.50
2022-12-28T11:19:25.831Z,12.60
2022-12-28T11:21:27.440Z,12.60
2022-12-28T11:23:31.759Z,12.60
2022-12-28T11:25:34.670Z,12.60
2022-12-28T11:27:36.534Z,12.70
2022-12-28T11:29:39.210Z,12.70
2022-12-28T11:31:59.250Z,12.80
2022-12-28T11:34:05.313Z,12.80
2022-12-28T11:36:13.263Z,12.90
2022-12-28T11:38:34.878Z,12.90
2022-12-28T11:40:42.382Z,13.00
2022-12-28T11:42:53.976Z,13.00
2022-12-28T11:44:55.767Z,13.00
2022-12-28T11:47:02.030Z,13.10
2022-12-28T11:49:05.018Z,13.10
2022-12-28T11:51:17.674Z,13.10
2022-12-28T11:53:42.690Z,13.10
2022-12-28T11:55:51.020Z,13.10
2022-12-28T11:57:53.854Z,13.20
2022-12-28T12:00:20.089Z,13.20
2022-12-28T12:02:27.262Z,13.20
2022-12-28T12:04:40.043Z,13.20
2022-12-28T12:06:41.821Z,13.20
2022-12-28T12:08:48.513Z,13.20
2022-12-28T12:11:10.197Z,13.20
2022-12-28T12:13:23.735Z,13.20
2022-12-28T12:15:27.798Z,13.20
2022-12-28T12:17:29.406Z,13.20
2022-12-28T12:19:35.851Z,13.20
2022-12-28T12:21:40.220Z,13.20
2022-12-28T12:23:50.202Z,13.20
2022-12-28T12:25:54.326Z,13.20
2022-12-28T12:28:01.113Z,13.10
2022-12-28T12:30:04.644Z,13.10
2022-12-28T12:32:11.548Z,13.10
2022-12-28T12:34:20.806Z,13.10
2022-12-28T12:36:43.069Z,13.10
2022-12-28T12:39:04.103Z,13.10
2022-12-28T12:41:12.359Z,13.10
2022-12-28T12:43:40.524Z,13.10
2022-12-28T12:46:00.767Z,13.10
2022-12-28T12:48:02.466Z,13.10
2022-12-28T12:50:12.948Z,13.10
2022-12-28T12:52:34.469Z,13.10
2022-12-28T12:54:57.497Z,13.10
2022-12-28T12:57:03.085Z,13.10
2022-12-28T12:59:10.756Z,13.10
2022-12-28T13:01:12.531Z,13.10
2022-12-28T13:03:17.073Z,13.10
2022-12-28T13:05:23.984Z,13.10
2022-12-28T13:07:26.927Z,13.10
2022-12-28T13:09:30.097Z,13.10
2022-12-28T13:11:35.025Z,13.10
2022-12-28T13:13:38.670Z,13.10
2022-12-28T13:15:43.204Z,13.10
2022-12-28T13:18:11.316Z,13.10
2022-12-28T13:20:21.667Z,13.10
2022-12-28T13:22:31.388Z,13.10
2022-12-28T13:24:38.816Z,13.10
2022-12-28T13:26:41.952Z,13.10
2022-12-28T13:29:03.893Z,13.10
2022-12-28T13:31:15.393Z,13.10
2022-12-28T13:33:20.932Z,13.20
2022-12-28T13:35:27.433Z,13.20
2022-12-28T13:37:29.115Z,13.20
2022-12-28T13:39:35.442Z,13.20
2022-12-28T13:41:53.515Z,13.20
2022-12-28T13:44:09.266Z,13.20
2022-12-28T13:46:13.025Z,13.20
2022-12-28T13:48:14.676Z,13.20
2022-12-28T13:50:18.899Z,13.20
2022-12-28T13:52:23.694Z,13.20
2022-12-28T13:54:25.565Z,13.20
2022-12-28T13:56:27.847Z,13.20
2022-12-28T13:58:29.467Z,13.20
2022-12-28T14:00:31.943Z,13.20
2022-12-28T14:02:34.470Z,13.20
2022-12-28T14:04:52.372Z,13.20
2022-12-28T14:06:54.997Z,13.30
2022-12-28T14:09:03.759Z,13.30
2022-12-28T14:11:07.613Z,13.30
2022-12-28T14:13:10.037Z,13.30
2022-12-28T14:15:13.367Z,13.30
2022-12-28T14:17:15.466Z,13.30
2022-12-28T14:19:17.237Z,13.30
2022-12-28T14:21:31.911Z,13.30
2022-12-28T14:23:35.368Z,13.30
2022-12-28T14:25:41.711Z,13.30
2022-12-28T14:27:43.380Z,13.30
2022-12-28T14:29:46.331Z,13.30
2022-12-28T14:31:48.027Z,13.30
2022-12-28T14:33:52.566Z,13.30
2022-12-28T14:35:56.224Z,13.30
2022-12-28T14:37:59.352Z,13.30
2022-12-28T14:40:02.672Z,13.40
2022-12-28T14:42:05.345Z,13.30
2022-12-28T14:44:15.444Z,13.30
2022-12-28T14:46:36.417Z,13.40
2022-12-28T14:48:40.480Z,13.40
2022-12-28T14:50:54.595Z,13.40
2022-12-28T14:53:08.111Z,13.40
2022-12-28T14:55:30.192Z,13.40
2022-12-28T14:57:41.951Z,13.40
2022-12-28T14:59:44.927Z,13.40
2022-12-28T15:01:47.434Z,13.40
2022-12-28T15:03:56.157Z,13.40
2022-12-28T15:05:58.814Z,13.40
2022-12-28T15:08:00.991Z,13.40
2022-12-28T15:10:02.699Z,13.40
2022-12-28T15:12:09.515Z,13.40
2022-12-28T15:14:11.650Z,13.40
2022-12-28T15:16:13.941Z,13.40
2022-12-28T15:18:17.640Z,13.40
2022-12-28T15:20:19.410Z,13.40
2022-12-28T15:22:21.016Z,13.40
2022-12-28T15:24:24.438Z,13.40
2022-12-28T15:26:28.000Z,13.40
2022-12-28T15:28:29.689Z,13.40
2022-12-28T15:30:31.373Z,13.40
2022-12-28T15:32:33.036Z,13.40
2022-12-28T15:34:34.710Z,13.40
2022-12-28T15:36:36.426Z,13.30
2022-12-28T15:38:38.074Z,13.40
2022-12-28T15:40:39.932Z,13.40
2022-12-28T15:42:45.522Z,13.40
2022-12-28T15:44:48.722Z,13.40
2022-12-28T15:46:50.624Z,13.30
2022-12-28T15:48:52.365Z,13.30
2022-12-28T15:50:54.012Z,13.30
2022-12-28T15:52:55.656Z,13.30
2022-12-28T15:54:57.544Z,13.30
2022-12-28T15:56:59.212Z,13.30
2022-12-28T15:59:01.822Z,13.40
2022-12-28T16:01:03.569Z,13.40
2022-12-28T16:03:11.344Z,13.40
2022-12-28T16:05:13.161Z,13.40
2022-12-28T16:07:15.384Z,13.40
2022-12-28T16:09:17.043Z,13.40
2022-12-28T16:11:19.089Z,13.40
2022-12-28T16:13:20.791Z,13.40
2022-12-28T16:15:22.451Z,13.40
2022-12-28T16:17:24.162Z,13.40
2022-12-28T16:19:25.867Z,13.40
2022-12-28T16:21:28.252Z,13.40
2022-12-28T16:23:33.519Z,13.40
2022-12-28T16:25:35.158Z,13.30
2022-12-28T16:27:37.129Z,13.40
2022-12-28T16:29:38.779Z,13.40
2022-12-28T16:31:40.576Z,13.30
2022-12-28T16:33:42.289Z,13.30
2022-12-28T16:35:50.836Z,13.30
2022-12-28T16:37:56.181Z,13.30
2022-12-28T16:39:57.896Z,13.30
2022-12-28T16:41:59.615Z,13.30
2022-12-28T16:44:02.364Z,13.30
2022-12-28T16:46:05.455Z,13.40
2022-12-28T16:48:07.659Z,13.30
2022-12-28T16:50:10.401Z,13.30
2022-12-28T16:52:12.047Z,13.40
2022-12-28T16:54:21.037Z,13.30
2022-12-28T16:56:23.074Z,13.30
2022-12-28T16:58:24.968Z,13.30
2022-12-28T17:00:26.624Z,13.30
2022-12-28T17:02:28.503Z,13.30
2022-12-28T17:04:30.341Z,13.40
2022-12-28T17:06:32.088Z,13.30
2022-12-28T17:08:34.429Z,13.30
2022-12-28T17:10:40.617Z,13.30
2022-12-28T17:12:42.344Z,13.30
2022-12-28T17:14:44.006Z,13.30
2022-12-28T17:16:45.717Z,13.30
2022-12-28T17:18:47.387Z,13.30
2022-12-28T17:20:49.104Z,13.30
2022-12-28T17:22:50.977Z,13.30
2022-12-28T17:24:52.683Z,13.30
2022-12-28T17:26:54.444Z,13.30
2022-12-28T17:28:56.542Z,13.30
2022-12-28T17:31:05.500Z,13.30
2022-12-28T17:33:08.472Z,13.40
2022-12-28T17:35:10.413Z,13.30
2022-12-28T17:37:12.093Z,13.30
2022-12-28T17:39:13.860Z,13.40
2022-12-28T17:41:17.113Z,13.30
2022-12-28T17:43:19.052Z,13.30
2022-12-28T17:45:20.726Z,13.30
2022-12-28T17:47:22.623Z,13.30
2022-12-28T17:49:24.397Z,13.40
2022-12-28T17:51:28.372Z,13.40
2022-12-28T17:53:31.530Z,13.30
2022-12-28T17:55:34.471Z,13.40
2022-12-28T17:57:38.752Z,13.40
2022-12-28T17:59:40.674Z,13.40
2022-12-28T18:01:42.946Z,13.40
2022-12-28T18:03:44.754Z,13.40
2022-12-28T18:05:50.683Z,13.30
2022-12-28T18:07:52.392Z,13.40
2022-12-28T18:09:54.077Z,13.30
2022-12-28T18:11:55.756Z,13.30
2022-12-28T18:13:59.144Z,13.30
2022-12-28T18:16:03.038Z,13.30
2022-12-28T18:18:05.361Z,13.30
2022-12-28T18:20:07.395Z,13.30
2022-12-28T18:22:09.000Z,13.30
2022-12-28T18:24:15.492Z,13.30
2022-12-28T18:26:18.750Z,13.30
2022-12-28T18:28:20.873Z,13.30
2022-12-28T18:30:23.011Z,13.30
2022-12-28T18:32:24.659Z,13.30
2022-12-28T18:34:26.454Z,13.20
2022-12-28T18:36:28.212Z,13.20
2022-12-28T18:38:30.300Z,13.20
2022-12-28T18:40:31.950Z,13.20
2022-12-28T18:42:33.676Z,13.20
2022-12-28T18:44:35.286Z,13.20
2022-12-28T18:46:37.197Z,13.20
2022-12-28T18:48:39.979Z,13.10
2022-12-28T18:50:41.653Z,13.10
2022-12-28T18:52:43.486Z,13.10
2022-12-28T18:54:45.118Z,13.10
2022-12-28T18:56:46.802Z,13.10
2022-12-28T18:58:53.046Z,13.10
2022-12-28T19:01:01.062Z,13.10
2022-12-28T19:03:02.867Z,13.10
2022-12-28T19:05:05.003Z,13.10
2022-12-28T19:07:06.714Z,13.10
2022-12-28T19:09:09.013Z,13.00
2022-12-28T19:11:11.123Z,13.00
2022-12-28T19:13:12.766Z,13.00
2022-12-28T19:15:14.422Z,13.00
2022-12-28T19:17:16.057Z,13.00
2022-12-28T19:19:20.447Z,12.90
2022-12-28T19:21:31.285Z,12.90
2022-12-28T19:23:33.003Z,12.90
2022-12-28T19:25:34.848Z,12.90
2022-12-28T19:27:36.559Z,12.90
2022-12-28T19:29:38.276Z,12.90
2022-12-28T19:31:40.030Z,12.90
2022-12-28T19:33:41.865Z,12.90
2022-12-28T19:35:43.619Z,12.90
2022-12-28T19:37:45.254Z,12.90
2022-12-28T19:39:46.952Z,12.90
2022-12-28T19:41:48.641Z,12.90
2022-12-28T19:43:50.620Z,12.90
2022-12-28T19:45:52.451Z,12.90
2022-12-28T19:47:54.351Z,12.90
2022-12-28T19:50:01.912Z,12.90
2022-12-28T19:52:03.716Z,12.90
2022-12-28T19:54:10.379Z,12.90
2022-12-28T19:56:17.839Z,12.90
2022-12-28T19:58:20.681Z,12.90
2022-12-28T20:00:23.031Z,12.90
2022-12-28T20:02:25.078Z,12.90
2022-12-28T20:04:27.027Z,12.90
2022-12-28T20:06:29.210Z,12.90
2022-12-28T20:08:30.892Z,12.90
2022-12-28T20:10:32.698Z,12.90
2022-12-28T20:12:34.822Z,12.90
2022-12-28T20:14:36.481Z,12.90
2022-12-28T20:16:38.214Z,12.90
2022-12-28T20:18:39.955Z,13.00
2022-12-28T20:21:17.169Z,13.00
2022-12-28T20:23:04.221Z,13.00
2022-12-28T20:25:06.260Z,13.00
2022-12-28T20:27:08.133Z,13.00
2022-12-28T20:29:09.981Z,13.00
2022-12-28T20:31:13.157Z,13.00
2022-12-28T20:33:15.620Z,13.00
2022-12-28T20:35:17.446Z,13.10
2022-12-28T20:37:19.161Z,13.10
2022-12-28T20:39:20.827Z,13.10
2022-12-28T20:41:45.578Z,13.10
2022-12-28T20:43:52.698Z,13.10
2022-12-28T20:45:54.641Z,13.20
2022-12-28T20:47:56.424Z,13.20
2022-12-28T20:49:58.132Z,13.20
2022-12-28T20:51:59.804Z,13.20
2022-12-28T20:54:01.589Z,13.20
2022-12-28T20:56:07.427Z,13.30
2022-12-28T20:58:09.262Z,13.30
2022-12-28T21:00:11.360Z,13.30
2022-12-28T21:02:13.133Z,13.30
2022-12-28T21:04:15.129Z,13.30
2022-12-28T21:06:16.905Z,13.40
2022-12-28T21:08:18.614Z,13.40
2022-12-28T21:10:20.334Z,13.40
2022-12-28T21:12:22.065Z,13.50
2022-12-28T21:14:23.850Z,13.50
2022-12-28T21:16:26.331Z,13.50
2022-12-28T21:18:28.085Z,13.60
2022-12-28T21:20:35.454Z,13.60
2022-12-28T21:22:42.826Z,13.60
2022-12-28T21:24:44.527Z,13.60
2022-12-28T21:26:46.228Z,13.70
2022-12-28T21:28:48.295Z,13.70
2022-12-28T21:30:56.760Z,13.70
2022-12-28T21:32:58.418Z,13.70
2022-12-28T21:35:00.132Z,13.80
2022-12-28T21:37:21.754Z,13.80
2022-12-28T21:39:23.386Z,13.80
2022-12-28T21:41:43.865Z,13.90
2022-12-28T21:43:45.526Z,13.90
2022-12-28T21:45:58.465Z,13.90
2022-12-28T21:48:03.589Z,14.00
2022-12-28T21:50:06.156Z,14.00
2022-12-28T21:52:07.910Z,14.00
2022-12-28T21:54:35.647Z,14.00
2022-12-28T21:56:37.448Z,14.00
2022-12-28T21:58:39.135Z,14.10
2022-12-28T22:00:59.393Z,14.10
2022-12-28T22:03:20.123Z,14.10
2022-12-28T22:05:40.719Z,14.10
2022-12-28T22:07:42.421Z,14.10
2022-12-28T22:10:02.754Z,14.10
2022-12-28T22:12:23.025Z,14.10
2022-12-28T22:14:24.770Z,14.20
2022-12-28T22:16:26.858Z,14.20
2022-12-28T22:20:50.315Z,14.20
2022-12-28T22:22:54.330Z,14.20
2022-12-28T22:24:55.986Z,14.20
2022-12-28T22:26:57.686Z,14.30
2022-12-28T22:28:59.325Z,14.30
2022-12-28T22:31:07.711Z,14.30
2022-12-28T22:33:09.427Z,14.30
2022-12-28T22:35:11.336Z,14.30
2022-12-28T22:37:13.935Z,14.30
2022-12-28T22:39:15.583Z,14.30
2022-12-28T22:41:17.301Z,14.30
2022-12-28T22:43:18.976Z,14.40
2022-12-28T22:45:21.771Z,14.40
2022-12-28T22:47:23.559Z,14.30
2022-12-28T22:49:25.216Z,14.40
2022-12-28T22:51:26.858Z,14.40
2022-12-28T22:53:28.551Z,14.40
2022-12-28T22:55:30.307Z,14.40
2022-12-28T22:57:32.066Z,14.40
2022-12-28T22:59:34.208Z,14.40
2022-12-28T23:01:36.097Z,14.40
2022-12-28T23:03:38.458Z,14.40
2022-12-28T23:05:40.228Z,14.40
2022-12-28T23:07:41.957Z,14.40
2022-12-28T23:09:43.752Z,14.40
2022-12-28T23:11:45.506Z,14.50
2022-12-28T23:13:47.256Z,14.40
2022-12-28T23:15:59.691Z,14.40
2022-12-28T23:18:21.432Z,14.40
2022-12-28T23:20:41.510Z,14.40
2022-12-28T23:22:58.212Z,14.40
2022-12-28T23:25:18.907Z,14.40
2022-12-28T23:27:20.608Z,14.30
2022-12-28T23:29:27.320Z,14.40
2022-12-28T23:31:32.298Z,14.30
2022-12-28T23:33:33.956Z,14.30
2022-12-28T23:35:35.666Z,14.40
2022-12-28T23:37:37.381Z,14.40
2022-12-28T23:39:39.009Z,14.40
2022-12-28T23:41:49.971Z,14.40
2022-12-28T23:43:51.749Z,14.30
2022-12-28T23:45:53.487Z,14.40
2022-12-28T23:47:55.357Z,14.50
2022-12-28T23:49:57.164Z,14.40
2022-12-28T23:51:58.852Z,14.50
2022-12-28T23:54:00.726Z,14.40
2022-12-28T23:56:02.413Z,14.40
2022-12-28T23:58:04.225Z,14.60
